createdAt,value
2022-09-11T00:00:56.014Z,13.07
2022-09-11T00:03:24.439Z,13.04
2022-09-11T00:05:51.931Z,13.01
2022-09-11T00:08:20.238Z,12.98
2022-09-11T00:10:48.377Z,12.95
2022-09-11T00:13:21.258Z,12.90
2022-09-11T00:15:50.712Z,12.86
2022-09-11T00:18:21.624Z,12.83
2022-09-11T00:20:53.186Z,12.79
2022-09-11T00:23:20.760Z,12.76
2022-09-11T00:25:47.747Z,12.73
2022-09-11T00:28:19.697Z,12.70
2022-09-11T00:30:47.764Z,12.70
2022-09-11T00:33:15.767Z,12.68
2022-09-11T00:35:42.575Z,12.76
2022-09-11T00:38:09.022Z,12.79
2022-09-11T00:40:46.041Z,12.88
2022-09-11T00:43:14.946Z,13.14
2022-09-11T00:45:41.427Z,13.18
2022-09-11T00:48:11.022Z,13.22
2022-09-11T00:50:37.552Z,13.22
2022-09-11T00:53:08.242Z,13.16
2022-09-11T00:55:37.834Z,13.09
2022-09-11T00:58:09.460Z,13.06
2022-09-11T01:00:39.365Z,12.99
2022-09-11T01:03:05.767Z,12.95
2022-09-11T01:05:35.246Z,12.88
2022-09-11T01:08:03.723Z,12.82
2022-09-11T01:10:50.349Z,12.76
2022-09-11T01:13:43.641Z,12.73
2022-09-11T01:16:30.215Z,12.69
2022-09-11T01:19:05.434Z,12.65
2022-09-11T01:21:40.948Z,12.62
2022-09-11T01:24:09.174Z,12.57
2022-09-11T01:26:50.115Z,12.52
2022-09-11T01:29:31.153Z,12.48
2022-09-11T01:32:05.471Z,12.44
2022-09-11T01:34:45.636Z,12.41
2022-09-11T01:37:22.138Z,12.38
2022-09-11T01:39:58.453Z,12.31
2022-09-11T01:42:31.410Z,12.31
2022-09-11T01:44:57.773Z,12.29
2022-09-11T01:47:25.009Z,12.24
2022-09-11T01:49:57.908Z,12.17
2022-09-11T01:52:28.531Z,12.16
2022-09-11T01:55:01.279Z,12.15
2022-09-11T01:57:37.664Z,12.09
2022-09-11T02:00:10.560Z,12.07
2022-09-11T02:02:42.891Z,12.07
2022-09-11T02:05:16.362Z,12.07
2022-09-11T02:07:52.169Z,12.04
2022-09-11T02:10:23.640Z,12.01
2022-09-11T02:12:57.035Z,11.99
2022-09-11T02:15:28.808Z,12.03
2022-09-11T02:18:02.665Z,12.04
2022-09-11T02:20:30.368Z,12.00
2022-09-11T02:22:57.805Z,11.96
2022-09-11T02:25:24.788Z,11.92
2022-09-11T02:27:51.581Z,11.88
2022-09-11T02:30:18.177Z,11.88
2022-09-11T02:32:44.605Z,11.83
2022-09-11T02:35:11.989Z,11.79
2022-09-11T02:37:38.889Z,11.78
2022-09-11T02:40:13.451Z,11.70
2022-09-11T02:43:17.350Z,11.69
2022-09-11T02:46:12.323Z,11.63
2022-09-11T02:48:58.533Z,11.61
2022-09-11T02:51:36.941Z,11.60
2022-09-11T02:54:07.449Z,11.59
2022-09-11T02:57:10.671Z,11.60
2022-09-11T02:59:42.330Z,11.62
2022-09-11T03:02:15.670Z,11.60
2022-09-11T03:04:42.196Z,11.57
2022-09-11T03:07:09.095Z,11.56
2022-09-11T03:09:35.711Z,11.49
2022-09-11T03:12:03.583Z,11.45
2022-09-11T03:14:29.975Z,11.46
2022-09-11T03:16:56.747Z,11.44
2022-09-11T03:19:23.086Z,11.39
2022-09-11T03:21:50.968Z,11.35
2022-09-11T03:24:17.537Z,11.36
2022-09-11T03:26:43.989Z,11.38
2022-09-11T03:29:10.335Z,11.35
2022-09-11T03:31:39.246Z,11.33
2022-09-11T03:34:06.369Z,11.37
2022-09-11T03:36:34.353Z,11.39
2022-09-11T03:39:01.496Z,11.40
2022-09-11T03:41:28.276Z,11.40
2022-09-11T03:43:54.652Z,11.36
2022-09-11T03:46:21.086Z,11.32
2022-09-11T03:48:47.441Z,11.28
2022-09-11T03:51:14.965Z,11.26
2022-09-11T03:53:42.400Z,11.26
2022-09-11T03:56:08.887Z,11.26
2022-09-11T03:58:35.242Z,11.25
2022-09-11T04:01:01.642Z,11.23
2022-09-11T04:03:28.037Z,11.23
2022-09-11T04:06:02.544Z,11.21
2022-09-11T04:08:33.472Z,11.17
2022-09-11T04:11:01.638Z,11.13
2022-09-11T04:13:33.592Z,11.13
2022-09-11T04:16:07.965Z,11.08
2022-09-11T04:18:36.494Z,11.05
2022-09-11T04:21:11.087Z,11.03
2022-09-11T04:23:38.243Z,11.03
2022-09-11T04:26:16.976Z,11.04
2022-09-11T04:28:44.254Z,11.02
2022-09-11T04:31:11.419Z,11.01
2022-09-11T04:33:39.612Z,11.03
2022-09-11T04:36:12.929Z,11.02
2022-09-11T04:38:40.656Z,11.03
2022-09-11T04:41:08.188Z,10.99
2022-09-11T04:43:36.571Z,10.98
2022-09-11T04:46:11.487Z,10.98
2022-09-11T04:48:43.678Z,10.96
2022-09-11T04:51:10.597Z,10.89
2022-09-11T04:53:39.629Z,10.87
2022-09-11T04:56:13.449Z,10.83
2022-09-11T04:58:40.787Z,10.89
2022-09-11T05:01:13.660Z,10.83
2022-09-11T05:03:41.337Z,10.82
2022-09-11T05:06:09.681Z,10.84
2022-09-11T05:08:36.790Z,10.90
2022-09-11T05:11:06.326Z,10.87
2022-09-11T05:13:36.369Z,10.85
2022-09-11T05:16:12.055Z,10.90
2022-09-11T05:18:40.456Z,10.91
2022-09-11T05:21:10.993Z,10.92
2022-09-11T05:23:37.359Z,10.92
2022-09-11T05:26:04.985Z,10.92
2022-09-11T05:28:31.825Z,10.94
2022-09-11T05:30:59.198Z,10.96
2022-09-11T05:33:27.564Z,11.02
2022-09-11T05:35:55.215Z,11.07
2022-09-11T05:38:22.675Z,11.13
2022-09-11T05:40:51.678Z,11.18
2022-09-11T05:43:19.699Z,11.26
2022-09-11T05:45:54.562Z,11.32
2022-09-11T05:48:20.978Z,11.37
2022-09-11T05:50:59.762Z,11.45
2022-09-11T05:53:32.820Z,11.53
2022-09-11T05:56:05.996Z,11.64
2022-09-11T05:58:32.883Z,11.76
2022-09-11T06:01:08.317Z,11.89
2022-09-11T06:03:36.161Z,11.96
2022-09-11T06:06:04.572Z,12.09
2022-09-11T06:08:33.459Z,12.21
2022-09-11T06:11:03.341Z,12.35
2022-09-11T06:13:30.498Z,12.47
2022-09-11T06:15:56.957Z,12.65
2022-09-11T06:18:23.403Z,12.80
2022-09-11T06:21:07.057Z,12.96
2022-09-11T06:23:35.187Z,13.21
2022-09-11T06:26:06.411Z,13.41
2022-09-11T06:28:32.786Z,13.58
2022-09-11T06:30:59.190Z,13.84
2022-09-11T06:33:25.530Z,14.24
2022-09-11T06:35:59.795Z,14.37
2022-09-11T06:38:27.304Z,14.96
2022-09-11T06:40:54.302Z,15.46
2022-09-11T06:43:21.111Z,15.72
2022-09-11T06:45:48.298Z,15.71
2022-09-11T06:48:16.306Z,15.60
2022-09-11T06:50:42.975Z,15.60
2022-09-11T06:53:10.617Z,15.64
2022-09-11T06:55:38.652Z,15.77
2022-09-11T06:58:05.173Z,15.94
2022-09-11T07:00:31.629Z,16.19
2022-09-11T07:02:58.046Z,16.34
2022-09-11T07:05:27.379Z,16.62
2022-09-11T07:07:55.405Z,17.08
2022-09-11T07:10:22.755Z,17.09
2022-09-11T07:12:52.000Z,17.26
2022-09-11T07:15:18.450Z,17.46
2022-09-11T07:17:44.864Z,17.64
2022-09-11T07:20:11.331Z,17.85
2022-09-11T07:22:37.721Z,18.13
2022-09-11T07:25:07.536Z,18.25
2022-09-11T07:27:34.228Z,18.43
2022-09-11T07:30:00.629Z,18.68
2022-09-11T07:32:27.173Z,19.03
2022-09-11T07:34:53.675Z,19.26
2022-09-11T07:37:20.065Z,19.45
2022-09-11T07:39:47.132Z,19.24
2022-09-11T07:42:13.604Z,19.38
2022-09-11T07:44:40.093Z,19.57
2022-09-11T07:47:06.573Z,19.69
2022-09-11T07:49:32.954Z,19.79
2022-09-11T07:51:59.319Z,19.78
2022-09-11T07:54:28.931Z,20.04
2022-09-11T07:56:56.133Z,20.62
2022-09-11T07:59:22.855Z,21.10
2022-09-11T08:01:53.228Z,22.24
2022-09-11T08:04:19.688Z,23.09
2022-09-11T08:06:46.353Z,23.80
2022-09-11T08:09:15.462Z,24.01
2022-09-11T08:11:48.530Z,23.08
2022-09-11T08:14:17.487Z,21.09
2022-09-11T08:16:44.825Z,20.58
2022-09-11T08:19:17.879Z,20.42
2022-09-11T08:21:44.642Z,20.38
2022-09-11T08:24:14.873Z,20.26
2022-09-11T08:26:43.713Z,20.24
2022-09-11T08:29:12.110Z,20.90
2022-09-11T08:31:38.513Z,20.68
2022-09-11T08:34:04.967Z,20.53
2022-09-11T08:36:31.338Z,21.08
2022-09-11T08:39:00.293Z,20.51
2022-09-11T08:41:37.178Z,20.29
2022-09-11T08:44:19.923Z,20.52
2022-09-11T08:47:10.060Z,20.47
2022-09-11T08:49:44.284Z,20.96
2022-09-11T08:52:15.776Z,21.11
2022-09-11T08:54:43.758Z,20.61
2022-09-11T08:57:28.609Z,20.92
2022-09-11T09:00:21.181Z,21.33
2022-09-11T09:03:18.453Z,21.55
2022-09-11T09:06:09.711Z,22.07
2022-09-11T09:08:57.912Z,21.99
2022-09-11T09:11:42.058Z,22.49
2022-09-11T09:14:36.846Z,22.31
2022-09-11T09:17:15.118Z,22.26
2022-09-11T09:19:47.226Z,22.64
2022-09-11T09:22:20.830Z,22.58
2022-09-11T09:24:54.496Z,22.62
2022-09-11T09:27:35.197Z,22.59
2022-09-11T09:30:05.655Z,22.73
2022-09-11T09:32:47.431Z,23.02
2022-09-11T09:35:21.988Z,23.34
2022-09-11T09:37:48.712Z,23.61
2022-09-11T09:40:17.868Z,23.52
2022-09-11T09:43:15.235Z,23.37
2022-09-11T09:46:07.432Z,23.92
2022-09-11T09:48:39.614Z,24.14
2022-09-11T09:51:10.799Z,23.21
2022-09-11T09:53:45.425Z,22.18
2022-09-11T09:56:16.305Z,21.47
2022-09-11T09:58:56.438Z,20.97
2022-09-11T10:01:43.958Z,20.64
2022-09-11T10:04:15.044Z,20.54
2022-09-11T10:06:43.417Z,20.38
2022-09-11T10:09:28.236Z,20.34
2022-09-11T10:12:01.797Z,20.09
2022-09-11T10:14:51.125Z,19.87
2022-09-11T10:17:38.322Z,20.25
2022-09-11T10:20:21.842Z,20.13
2022-09-11T10:22:49.453Z,19.99
2022-09-11T10:25:17.104Z,19.76
2022-09-11T10:27:56.363Z,19.61
2022-09-11T10:30:32.919Z,19.74
2022-09-11T10:33:03.675Z,20.04
2022-09-11T10:35:33.222Z,20.41
2022-09-11T10:38:20.100Z,20.59
2022-09-11T10:40:56.439Z,20.61
2022-09-11T10:43:27.581Z,20.66
2022-09-11T10:46:24.839Z,20.38
2022-09-11T10:49:23.254Z,20.32
2022-09-11T10:52:16.712Z,20.81
2022-09-11T10:54:55.112Z,20.94
2022-09-11T10:57:27.586Z,20.71
2022-09-11T11:00:21.514Z,20.63
2022-09-11T11:02:58.010Z,20.65
2022-09-11T11:05:46.367Z,20.60
2022-09-11T11:08:34.422Z,20.53
2022-09-11T11:11:14.586Z,20.44
2022-09-11T11:14:15.904Z,20.28
2022-09-11T11:17:04.255Z,20.16
2022-09-11T11:19:43.766Z,19.94
2022-09-11T11:22:19.473Z,19.79
2022-09-11T11:25:11.354Z,19.72
2022-09-11T11:27:51.240Z,19.81
2022-09-11T11:30:20.166Z,19.94
2022-09-11T11:33:19.870Z,20.56
2022-09-11T11:36:04.277Z,21.55
2022-09-11T11:38:36.796Z,22.26
2022-09-11T11:41:25.398Z,22.57
2022-09-11T11:43:55.549Z,22.82
2022-09-11T11:46:47.746Z,22.84
2022-09-11T11:49:21.994Z,22.39
2022-09-11T11:52:04.958Z,22.84
2022-09-11T11:54:44.619Z,22.92
2022-09-11T11:57:26.282Z,22.28
2022-09-11T12:00:02.990Z,22.71
2022-09-11T12:02:37.418Z,23.14
2022-09-11T12:05:10.812Z,23.37
2022-09-11T12:07:39.475Z,23.96
2022-09-11T12:10:08.458Z,23.22
2022-09-11T12:12:44.216Z,23.56
2022-09-11T12:15:25.814Z,23.62
2022-09-11T12:18:05.022Z,24.12
2022-09-11T12:20:40.762Z,23.22
2022-09-11T12:23:47.317Z,23.50
2022-09-11T12:26:19.715Z,24.14
2022-09-11T12:28:46.746Z,23.65
2022-09-11T12:31:15.578Z,22.82
2022-09-11T12:33:42.925Z,22.15
2022-09-11T12:36:24.482Z,22.50
2022-09-11T12:38:59.440Z,23.64
2022-09-11T12:41:33.518Z,24.34
2022-09-11T12:44:00.775Z,25.00
2022-09-11T12:46:27.948Z,24.38
2022-09-11T12:49:18.343Z,23.03
2022-09-11T12:51:56.522Z,22.29
2022-09-11T12:54:31.860Z,22.04
2022-09-11T12:57:02.970Z,23.00
2022-09-11T12:59:33.410Z,24.72
2022-09-11T13:02:00.591Z,25.75
2022-09-11T13:04:31.166Z,26.48
2022-09-11T13:07:05.315Z,26.22
2022-09-11T13:09:37.846Z,24.15
2022-09-11T13:12:26.446Z,23.20
2022-09-11T13:14:57.523Z,23.33
2022-09-11T13:17:30.281Z,23.87
2022-09-11T13:20:19.766Z,24.83
2022-09-11T13:22:48.911Z,25.65
2022-09-11T13:25:21.444Z,26.22
2022-09-11T13:27:50.835Z,24.45
2022-09-11T13:30:21.634Z,22.68
2022-09-11T13:32:59.317Z,22.75
2022-09-11T13:35:28.605Z,22.45
2022-09-11T13:38:20.241Z,22.16
2022-09-11T13:40:57.950Z,22.39
2022-09-11T13:43:58.240Z,24.19
2022-09-11T13:46:26.666Z,26.38
2022-09-11T13:48:58.064Z,28.30
2022-09-11T13:51:29.700Z,28.51
2022-09-11T13:54:02.798Z,28.58
2022-09-11T13:56:45.393Z,28.48
2022-09-11T13:59:35.291Z,28.00
2022-09-11T14:02:05.077Z,27.84
2022-09-11T14:04:38.009Z,28.67
2022-09-11T14:07:15.621Z,29.20
2022-09-11T14:09:47.230Z,29.15
2022-09-11T14:12:14.166Z,28.95
2022-09-11T14:14:46.834Z,28.50
2022-09-11T14:17:14.704Z,28.84
2022-09-11T14:19:44.353Z,29.00
2022-09-11T14:22:16.393Z,29.08
2022-09-11T14:24:55.697Z,28.58
2022-09-11T14:27:34.028Z,28.56
2022-09-11T14:30:00.635Z,29.18
2022-09-11T14:32:36.792Z,29.22
2022-09-11T14:35:09.743Z,30.16
2022-09-11T14:37:49.944Z,30.60
2022-09-11T14:40:18.799Z,30.14
2022-09-11T14:42:45.658Z,30.60
2022-09-11T14:45:23.120Z,30.23
2022-09-11T14:47:50.353Z,29.37
2022-09-11T14:50:16.794Z,28.60
2022-09-11T14:52:43.490Z,25.29
2022-09-11T14:55:18.255Z,23.70
2022-09-11T14:57:46.585Z,22.91
2022-09-11T15:00:18.877Z,22.50
2022-09-11T15:02:46.376Z,22.26
2022-09-11T15:05:19.429Z,22.07
2022-09-11T15:07:45.952Z,21.94
2022-09-11T15:10:13.782Z,21.96
2022-09-11T15:12:40.380Z,21.89
2022-09-11T15:15:07.595Z,21.78
2022-09-11T15:17:36.049Z,21.58
2022-09-11T15:20:05.992Z,21.58
2022-09-11T15:22:32.580Z,21.46
2022-09-11T15:25:00.292Z,21.31
2022-09-11T15:27:26.728Z,21.20
2022-09-11T15:29:53.612Z,21.16
2022-09-11T15:32:21.135Z,21.23
2022-09-11T15:34:47.656Z,21.18
2022-09-11T15:37:16.758Z,21.03
2022-09-11T15:39:43.172Z,21.03
2022-09-11T15:42:09.994Z,21.06
2022-09-11T15:44:36.742Z,21.06
2022-09-11T15:47:04.180Z,20.99
2022-09-11T15:49:31.677Z,20.97
2022-09-11T15:51:59.593Z,21.00
2022-09-11T15:54:27.034Z,20.92
2022-09-11T15:56:53.714Z,20.98
2022-09-11T15:59:20.666Z,21.09
2022-09-11T16:01:47.167Z,21.06
2022-09-11T16:04:18.618Z,20.98
2022-09-11T16:06:46.448Z,20.86
2022-09-11T16:09:16.644Z,20.90
2022-09-11T16:11:43.876Z,20.70
2022-09-11T16:14:38.307Z,20.54
2022-09-11T16:17:06.552Z,20.44
2022-09-11T16:19:34.475Z,20.40
2022-09-11T16:22:02.875Z,20.33
2022-09-11T16:24:31.601Z,20.33
2022-09-11T16:26:58.297Z,20.26
2022-09-11T16:29:43.946Z,20.30
2022-09-11T16:32:27.761Z,20.29
2022-09-11T16:34:55.093Z,20.18
2022-09-11T16:37:21.693Z,19.92
2022-09-11T16:39:50.671Z,19.82
2022-09-11T16:42:20.978Z,19.74
2022-09-11T16:44:47.629Z,19.72
2022-09-11T16:47:14.020Z,19.56
2022-09-11T16:50:05.263Z,19.54
2022-09-11T16:52:27.627Z,19.82
2022-09-11T16:54:54.324Z,19.98
2022-09-11T16:57:20.706Z,19.95
2022-09-11T16:59:47.652Z,20.16
2022-09-11T17:02:14.047Z,20.40
2022-09-11T17:04:40.422Z,20.59
2022-09-11T17:07:06.926Z,20.67
2022-09-11T17:09:33.490Z,20.61
2022-09-11T17:11:59.957Z,20.40
2022-09-11T17:14:28.346Z,20.14
2022-09-11T17:16:54.699Z,19.74
2022-09-11T17:19:21.321Z,19.37
2022-09-11T17:21:47.775Z,19.07
2022-09-11T17:24:17.836Z,18.88
2022-09-11T17:26:44.158Z,18.91
2022-09-11T17:29:10.566Z,18.83
2022-09-11T17:31:37.028Z,18.67
2022-09-11T17:34:03.453Z,18.58
2022-09-11T17:36:29.857Z,18.61
2022-09-11T17:38:58.584Z,18.40
2022-09-11T17:41:25.601Z,18.28
2022-09-11T17:43:52.042Z,18.24
2022-09-11T17:46:20.505Z,17.99
2022-09-11T17:48:47.651Z,17.84
2022-09-11T17:51:25.632Z,17.70
2022-09-11T17:53:56.158Z,17.57
2022-09-11T17:56:25.845Z,17.47
2022-09-11T17:58:57.151Z,17.38
2022-09-11T18:01:25.300Z,17.31
2022-09-11T18:03:56.645Z,17.16
2022-09-11T18:06:28.913Z,16.99
2022-09-11T18:09:00.261Z,16.84
2022-09-11T18:11:26.626Z,16.78
2022-09-11T18:13:54.491Z,16.64
2022-09-11T18:16:21.980Z,16.55
2022-09-11T18:18:49.028Z,16.47
2022-09-11T18:21:15.879Z,16.38
2022-09-11T18:23:44.553Z,16.31
2022-09-11T18:26:29.806Z,16.20
2022-09-11T18:29:00.133Z,16.14
2022-09-11T18:31:30.194Z,16.01
2022-09-11T18:34:00.056Z,15.93
2022-09-11T18:36:28.570Z,15.89
2022-09-11T18:38:57.502Z,15.83
2022-09-11T18:41:24.908Z,15.78
2022-09-11T18:43:55.321Z,15.74
2022-09-11T18:46:22.051Z,15.69
2022-09-11T18:48:50.237Z,15.64
2022-09-11T18:51:17.987Z,15.57
2022-09-11T18:53:47.030Z,15.54
2022-09-11T18:56:13.549Z,15.56
2022-09-11T18:58:40.623Z,15.55
2022-09-11T19:01:12.119Z,15.47
2022-09-11T19:03:43.593Z,15.41
2022-09-11T19:06:12.343Z,15.34
2022-09-11T19:08:40.732Z,15.32
2022-09-11T19:11:09.352Z,15.26
2022-09-11T19:13:36.754Z,15.29
2022-09-11T19:16:04.221Z,15.28
2022-09-11T19:18:31.645Z,15.31
2022-09-11T19:21:00.311Z,15.30
2022-09-11T19:23:33.393Z,15.27
2022-09-11T19:26:03.261Z,15.21
2022-09-11T19:28:31.044Z,15.08
2022-09-11T19:31:00.566Z,15.04
2022-09-11T19:33:29.974Z,14.99
2022-09-11T19:35:57.906Z,14.96
2022-09-11T19:38:25.610Z,14.92
2022-09-11T19:40:52.993Z,14.87
2022-09-11T19:43:24.826Z,14.84
2022-09-11T19:45:51.523Z,14.77
2022-09-11T19:48:18.381Z,14.72
2022-09-11T19:50:45.731Z,14.68
2022-09-11T19:53:12.190Z,14.64
2022-09-11T19:55:38.585Z,14.57
2022-09-11T19:58:05.312Z,14.52
2022-09-11T20:00:31.727Z,14.48
2022-09-11T20:03:00.307Z,14.44
2022-09-11T20:05:26.847Z,14.41
2022-09-11T20:07:53.991Z,14.39
2022-09-11T20:10:20.457Z,14.38
2022-09-11T20:12:46.908Z,14.36
2022-09-11T20:15:13.307Z,14.32
2022-09-11T20:17:41.059Z,14.28
2022-09-11T20:20:07.751Z,14.26
2022-09-11T20:22:34.100Z,14.25
2022-09-11T20:25:00.705Z,14.20
2022-09-11T20:27:27.328Z,14.15
2022-09-11T20:29:54.658Z,14.10
2022-09-11T20:32:21.061Z,14.07
2022-09-11T20:34:47.477Z,14.02
2022-09-11T20:37:13.953Z,13.98
2022-09-11T20:39:40.383Z,13.96
2022-09-11T20:42:06.842Z,13.96
2022-09-11T20:44:36.871Z,13.95
2022-09-11T20:47:03.752Z,13.90
2022-09-11T20:49:30.610Z,13.89
2022-09-11T20:51:57.041Z,13.86
2022-09-11T20:54:23.433Z,13.85
2022-09-11T20:56:49.870Z,13.82
2022-09-11T20:59:16.278Z,13.81
2022-09-11T21:01:43.176Z,13.79
2022-09-11T21:04:09.911Z,13.77
2022-09-11T21:06:36.418Z,13.73
2022-09-11T21:09:09.317Z,13.73
2022-09-11T21:11:36.606Z,13.73
2022-09-11T21:14:03.532Z,13.69
2022-09-11T21:16:30.127Z,13.69
2022-09-11T21:18:59.471Z,13.69
2022-09-11T21:21:27.714Z,13.69
2022-09-11T21:23:55.118Z,13.70
2022-09-11T21:26:21.535Z,13.72
2022-09-11T21:28:47.892Z,13.74
2022-09-11T21:31:14.381Z,13.74
2022-09-11T21:33:41.114Z,13.68
2022-09-11T21:36:08.005Z,13.65
2022-09-11T21:38:35.936Z,13.68
2022-09-11T21:41:04.513Z,13.66
2022-09-11T21:43:31.002Z,13.61
2022-09-11T21:45:57.395Z,13.59
2022-09-11T21:48:24.196Z,13.59
2022-09-11T21:50:51.276Z,13.59
2022-09-11T21:53:18.232Z,13.59
2022-09-11T21:55:46.018Z,13.60
2022-09-11T21:58:20.495Z,13.63
2022-09-11T22:00:50.005Z,13.62
2022-09-11T22:03:18.875Z,13.59
2022-09-11T22:05:48.623Z,13.54
2022-09-11T22:08:18.034Z,13.53
2022-09-11T22:10:46.910Z,13.51
2022-09-11T22:13:13.465Z,13.49
2022-09-11T22:15:41.011Z,13.48
2022-09-11T22:18:07.435Z,13.48
2022-09-11T22:20:35.927Z,13.44
2022-09-11T22:23:02.351Z,13.44
2022-09-11T22:25:29.385Z,13.43
2022-09-11T22:27:56.694Z,13.44
2022-09-11T22:30:23.708Z,13.43
2022-09-11T22:32:50.480Z,13.43
2022-09-11T22:35:17.097Z,13.40
2022-09-11T22:37:43.465Z,13.40
2022-09-11T22:40:10.284Z,13.38
2022-09-11T22:42:36.669Z,13.37
2022-09-11T22:45:03.167Z,13.35
2022-09-11T22:47:29.587Z,13.37
2022-09-11T22:49:55.963Z,13.35
2022-09-11T22:52:22.909Z,13.34
2022-09-11T22:54:49.497Z,13.30
2022-09-11T22:57:15.954Z,13.30
2022-09-11T22:59:42.309Z,13.29
2022-09-11T23:02:09.638Z,13.30
2022-09-11T23:04:36.036Z,13.29
2022-09-11T23:07:17.688Z,13.28
2022-09-11T23:09:44.493Z,13.30
2022-09-11T23:12:11.185Z,13.28
2022-09-11T23:14:37.663Z,13.26
2022-09-11T23:17:04.490Z,13.22
2022-09-11T23:19:31.856Z,13.18
2022-09-11T23:21:58.228Z,13.15
2022-09-11T23:24:24.586Z,13.13
2022-09-11T23:26:50.934Z,13.14
2022-09-11T23:29:17.356Z,13.13
2022-09-11T23:31:45.028Z,13.11
2022-09-11T23:34:15.949Z,13.14
2022-09-11T23:36:43.122Z,13.16
2022-09-11T23:39:09.464Z,13.20
2022-09-11T23:41:35.950Z,13.22
2022-09-11T23:44:03.493Z,13.26
2022-09-11T23:46:29.830Z,13.37
2022-09-11T23:48:56.304Z,13.46
2022-09-11T23:51:22.687Z,13.47
2022-09-11T23:53:51.559Z,13.51
2022-09-11T23:56:18.436Z,13.54
2022-09-11T23:58:47.827Z,13.55
